sensor_id;sensor_type;location;lat;lon;timestamp;P1;P2;P0
72307;PMS5003;60257;42.638;23.376;2023-12-07T00:01:27;64.75;50.25;31.00
72307;PMS5003;60257;42.638;23.376;2023-12-07T00:03:53;62.00;50.25;32.00
72307;PMS5003;60257;42.638;23.376;2023-12-07T00:06:18;57.50;49.25;31.00
72307;PMS5003;60257;42.638;23.376;2023-12-07T00:08:44;59.50;49.75;33.25
72307;PMS5003;60257;42.638;23.376;2023-12-07T00:11:09;67.75;55.50;33.00
72307;PMS5003;60257;42.638;23.376;2023-12-07T00:13:34;66.50;53.50;32.75
72307;PMS5003;60257;42.638;23.376;2023-12-07T00:16:00;66.25;50.50;29.00
72307;PMS5003;60257;42.638;23.376;2023-12-07T00:18:25;68.00;54.25;34.50
72307;PMS5003;60257;42.638;23.376;2023-12-07T00:20:50;71.50;56.75;36.00
72307;PMS5003;60257;42.638;23.376;2023-12-07T00:23:16;74.75;59.50;36.00
72307;PMS5003;60257;42.638;23.376;2023-12-07T00:25:41;71.00;56.75;34.50
72307;PMS5003;60257;42.638;23.376;2023-12-07T00:28:07;72.25;56.25;34.00
72307;PMS5003;60257;42.638;23.376;2023-12-07T00:30:32;70.50;55.25;33.00
72307;PMS5003;60257;42.638;23.376;2023-12-07T00:32:58;62.50;51.50;29.25
72307;PMS5003;60257;42.638;23.376;2023-12-07T00:35:24;65.25;54.00;31.25
72307;PMS5003;60257;42.638;23.376;2023-12-07T00:37:49;69.25;55.25;35.00
72307;PMS5003;60257;42.638;23.376;2023-12-07T00:40:15;68.50;56.25;33.50
72307;PMS5003;60257;42.638;23.376;2023-12-07T00:42:41;68.50;54.75;34.00
72307;PMS5003;60257;42.638;23.376;2023-12-07T00:45:06;70.25;55.25;35.50
72307;PMS5003;60257;42.638;23.376;2023-12-07T00:47:32;67.75;54.75;35.25
72307;PMS5003;60257;42.638;23.376;2023-12-07T00:49:57;73.50;58.00;35.00
72307;PMS5003;60257;42.638;23.376;2023-12-07T00:52:23;70.50;56.25;32.00
72307;PMS5003;60257;42.638;23.376;2023-12-07T00:54:48;71.00;56.50;35.00
72307;PMS5003;60257;42.638;23.376;2023-12-07T00:57:13;75.00;59.25;37.25
72307;PMS5003;60257;42.638;23.376;2023-12-07T00:59:39;63.00;52.75;34.00
72307;PMS5003;60257;42.638;23.376;2023-12-07T01:02:04;70.25;56.50;32.25
72307;PMS5003;60257;42.638;23.376;2023-12-07T01:04:30;69.75;56.50;33.25
72307;PMS5003;60257;42.638;23.376;2023-12-07T01:06:57;72.25;56.75;34.00
72307;PMS5003;60257;42.638;23.376;2023-12-07T01:09:23;72.25;56.75;35.00
72307;PMS5003;60257;42.638;23.376;2023-12-07T01:11:49;74.75;58.75;35.00
72307;PMS5003;60257;42.638;23.376;2023-12-07T01:14:15;66.50;53.00;32.25
72307;PMS5003;60257;42.638;23.376;2023-12-07T01:16:41;69.75;55.75;32.00
72307;PMS5003;60257;42.638;23.376;2023-12-07T01:19:07;64.25;53.00;32.00
72307;PMS5003;60257;42.638;23.376;2023-12-07T01:21:33;73.50;56.50;36.00
72307;PMS5003;60257;42.638;23.376;2023-12-07T01:23:58;71.00;56.25;34.25
72307;PMS5003;60257;42.638;23.376;2023-12-07T01:26:24;76.50;59.75;35.00
72307;PMS5003;60257;42.638;23.376;2023-12-07T01:28:49;69.75;55.50;34.00
72307;PMS5003;60257;42.638;23.376;2023-12-07T01:31:15;74.75;58.25;34.00
72307;PMS5003;60257;42.638;23.376;2023-12-07T01:33:42;68.75;55.50;34.25
72307;PMS5003;60257;42.638;23.376;2023-12-07T01:36:07;68.50;55.75;33.50
72307;PMS5003;60257;42.638;23.376;2023-12-07T01:38:33;66.25;53.50;34.75
72307;PMS5003;60257;42.638;23.376;2023-12-07T01:40:58;73.50;58.50;34.00
72307;PMS5003;60257;42.638;23.376;2023-12-07T01:43:24;64.25;54.00;34.00
72307;PMS5003;60257;42.638;23.376;2023-12-07T01:45:49;75.00;59.00;36.00
72307;PMS5003;60257;42.638;23.376;2023-12-07T01:48:19;66.50;54.25;33.00
72307;PMS5003;60257;42.638;23.376;2023-12-07T01:50:45;66.75;55.00;33.25
72307;PMS5003;60257;42.638;23.376;2023-12-07T01:53:12;68.50;55.75;30.50
72307;PMS5003;60257;42.638;23.376;2023-12-07T01:55:38;67.25;54.75;34.50
72307;PMS5003;60257;42.638;23.376;2023-12-07T01:58:04;66.75;55.75;33.00
72307;PMS5003;60257;42.638;23.376;2023-12-07T02:00:29;72.25;56.00;32.25
72307;PMS5003;60257;42.638;23.376;2023-12-07T02:02:55;72.50;57.50;33.00
72307;PMS5003;60257;42.638;23.376;2023-12-07T02:05:21;75.00;59.00;35.75
72307;PMS5003;60257;42.638;23.376;2023-12-07T02:07:48;69.00;56.00;33.25
72307;PMS5003;60257;42.638;23.376;2023-12-07T02:10:14;74.25;58.00;34.25
72307;PMS5003;60257;42.638;23.376;2023-12-07T02:12:40;70.75;55.25;34.50
72307;PMS5003;60257;42.638;23.376;2023-12-07T02:15:06;73.50;61.25;36.00
72307;PMS5003;60257;42.638;23.376;2023-12-07T02:17:34;73.25;57.00;34.00
72307;PMS5003;60257;42.638;23.376;2023-12-07T02:20:03;62.00;52.75;33.50
72307;PMS5003;60257;42.638;23.376;2023-12-07T02:22:33;66.50;54.50;30.25
72307;PMS5003;60257;42.638;23.376;2023-12-07T02:25:05;68.75;55.00;34.75
72307;PMS5003;60257;42.638;23.376;2023-12-07T02:30:00;71.50;57.00;33.50
72307;PMS5003;60257;42.638;23.376;2023-12-07T02:32:25;76.00;58.25;34.50
72307;PMS5003;60257;42.638;23.376;2023-12-07T02:34:51;72.75;58.25;34.25
72307;PMS5003;60257;42.638;23.376;2023-12-07T02:37:16;69.00;54.00;30.75
72307;PMS5003;60257;42.638;23.376;2023-12-07T02:39:43;66.50;54.25;33.50
72307;PMS5003;60257;42.638;23.376;2023-12-07T02:42:09;70.00;56.25;34.00
72307;PMS5003;60257;42.638;23.376;2023-12-07T02:44:36;70.75;55.25;32.75
72307;PMS5003;60257;42.638;23.376;2023-12-07T02:47:02;71.75;56.75;33.50
72307;PMS5003;60257;42.638;23.376;2023-12-07T02:49:28;69.00;55.25;33.75
72307;PMS5003;60257;42.638;23.376;2023-12-07T02:51:53;60.00;48.50;26.00
72307;PMS5003;60257;42.638;23.376;2023-12-07T02:54:18;70.50;55.50;33.00
72307;PMS5003;60257;42.638;23.376;2023-12-07T02:56:44;69.50;53.25;34.25
72307;PMS5003;60257;42.638;23.376;2023-12-07T02:59:09;71.50;56.25;34.00
72307;PMS5003;60257;42.638;23.376;2023-12-07T03:01:34;69.25;57.25;34.25
72307;PMS5003;60257;42.638;23.376;2023-12-07T03:04:01;68.50;53.50;34.00
72307;PMS5003;60257;42.638;23.376;2023-12-07T03:06:26;67.25;53.25;32.00
72307;PMS5003;60257;42.638;23.376;2023-12-07T03:08:52;68.25;53.75;33.00
72307;PMS5003;60257;42.638;23.376;2023-12-07T03:11:17;73.50;56.75;34.75
72307;PMS5003;60257;42.638;23.376;2023-12-07T03:13:42;64.75;52.25;28.25
72307;PMS5003;60257;42.638;23.376;2023-12-07T03:16:08;73.00;55.75;33.00
72307;PMS5003;60257;42.638;23.376;2023-12-07T03:18:35;75.75;58.00;35.00
72307;PMS5003;60257;42.638;23.376;2023-12-07T03:21:01;70.25;58.00;35.00
72307;PMS5003;60257;42.638;23.376;2023-12-07T03:23:28;64.00;53.25;31.00
72307;PMS5003;60257;42.638;23.376;2023-12-07T03:25:53;66.75;53.00;28.75
72307;PMS5003;60257;42.638;23.376;2023-12-07T03:28:18;66.50;53.75;33.50
72307;PMS5003;60257;42.638;23.376;2023-12-07T03:30:44;73.75;58.25;32.00
72307;PMS5003;60257;42.638;23.376;2023-12-07T03:33:09;71.25;57.75;35.50
72307;PMS5003;60257;42.638;23.376;2023-12-07T03:35:34;65.50;52.75;32.00
72307;PMS5003;60257;42.638;23.376;2023-12-07T03:38:03;70.00;56.00;35.00
72307;PMS5003;60257;42.638;23.376;2023-12-07T03:40:28;63.75;50.50;32.00
72307;PMS5003;60257;42.638;23.376;2023-12-07T03:42:53;72.75;56.50;33.25
72307;PMS5003;60257;42.638;23.376;2023-12-07T03:45:19;62.50;51.25;30.25
72307;PMS5003;60257;42.638;23.376;2023-12-07T03:47:44;68.25;55.50;35.00
72307;PMS5003;60257;42.638;23.376;2023-12-07T03:50:10;63.00;52.50;31.25
72307;PMS5003;60257;42.638;23.376;2023-12-07T03:52:35;72.75;56.50;31.75
72307;PMS5003;60257;42.638;23.376;2023-12-07T03:55:01;64.50;51.25;30.75
72307;PMS5003;60257;42.638;23.376;2023-12-07T03:57:26;59.50;49.25;31.50
72307;PMS5003;60257;42.638;23.376;2023-12-07T03:59:51;62.00;51.00;30.25
72307;PMS5003;60257;42.638;23.376;2023-12-07T04:02:18;60.50;49.00;30.25
72307;PMS5003;60257;42.638;23.376;2023-12-07T04:04:44;62.25;51.00;31.00
72307;PMS5003;60257;42.638;23.376;2023-12-07T04:07:09;64.25;52.75;33.00
72307;PMS5003;60257;42.638;23.376;2023-12-07T04:09:35;69.50;54.25;33.50
72307;PMS5003;60257;42.638;23.376;2023-12-07T04:12:01;67.75;53.75;31.50
72307;PMS5003;60257;42.638;23.376;2023-12-07T04:14:26;56.50;46.50;28.00
72307;PMS5003;60257;42.638;23.376;2023-12-07T04:16:52;58.50;47.75;31.00
72307;PMS5003;60257;42.638;23.376;2023-12-07T04:19:18;64.75;52.50;30.50
72307;PMS5003;60257;42.638;23.376;2023-12-07T04:21:43;63.75;51.25;33.00
72307;PMS5003;60257;42.638;23.376;2023-12-07T04:24:09;58.50;47.00;28.75
72307;PMS5003;60257;42.638;23.376;2023-12-07T04:26:34;67.25;52.50;31.50
72307;PMS5003;60257;42.638;23.376;2023-12-07T04:28:59;56.50;47.00;25.00
72307;PMS5003;60257;42.638;23.376;2023-12-07T04:31:25;61.00;48.50;28.50
72307;PMS5003;60257;42.638;23.376;2023-12-07T04:33:50;65.75;54.75;32.25
72307;PMS5003;60257;42.638;23.376;2023-12-07T04:36:16;61.25;49.00;27.50
72307;PMS5003;60257;42.638;23.376;2023-12-07T04:38:41;69.00;55.75;33.25
72307;PMS5003;60257;42.638;23.376;2023-12-07T04:41:07;63.00;53.00;32.50
72307;PMS5003;60257;42.638;23.376;2023-12-07T04:43:32;69.75;55.25;32.75
72307;PMS5003;60257;42.638;23.376;2023-12-07T04:45:58;63.25;51.25;29.00
72307;PMS5003;60257;42.638;23.376;2023-12-07T04:48:24;65.75;52.00;33.00
72307;PMS5003;60257;42.638;23.376;2023-12-07T04:50:50;66.50;53.50;33.00
72307;PMS5003;60257;42.638;23.376;2023-12-07T04:53:16;60.00;50.00;31.00
72307;PMS5003;60257;42.638;23.376;2023-12-07T04:55:41;64.50;50.50;27.75
72307;PMS5003;60257;42.638;23.376;2023-12-07T04:58:12;67.00;55.00;31.75
72307;PMS5003;60257;42.638;23.376;2023-12-07T05:00:37;64.00;52.50;30.50
72307;PMS5003;60257;42.638;23.376;2023-12-07T05:03:03;72.50;55.50;32.25
72307;PMS5003;60257;42.638;23.376;2023-12-07T05:05:28;68.25;55.25;33.00
72307;PMS5003;60257;42.638;23.376;2023-12-07T05:07:53;66.75;53.50;35.00
72307;PMS5003;60257;42.638;23.376;2023-12-07T05:10:19;59.50;50.50;32.25
72307;PMS5003;60257;42.638;23.376;2023-12-07T05:12:44;64.00;53.00;29.50
72307;PMS5003;60257;42.638;23.376;2023-12-07T05:15:10;65.75;54.00;34.00
72307;PMS5003;60257;42.638;23.376;2023-12-07T05:17:35;68.00;55.25;33.25
72307;PMS5003;60257;42.638;23.376;2023-12-07T05:20:01;63.25;49.00;32.75
72307;PMS5003;60257;42.638;23.376;2023-12-07T05:22:27;68.50;56.00;33.25
72307;PMS5003;60257;42.638;23.376;2023-12-07T05:24:53;68.50;54.75;33.25
72307;PMS5003;60257;42.638;23.376;2023-12-07T05:27:18;65.25;52.25;33.00
72307;PMS5003;60257;42.638;23.376;2023-12-07T05:29:44;66.25;55.00;33.25
72307;PMS5003;60257;42.638;23.376;2023-12-07T05:32:09;67.25;54.75;31.00
72307;PMS5003;60257;42.638;23.376;2023-12-07T05:34:34;61.25;50.00;27.00
72307;PMS5003;60257;42.638;23.376;2023-12-07T05:37:00;65.25;54.50;32.50
72307;PMS5003;60257;42.638;23.376;2023-12-07T05:39:26;65.00;51.75;32.75
72307;PMS5003;60257;42.638;23.376;2023-12-07T05:41:51;63.50;51.00;31.00
72307;PMS5003;60257;42.638;23.376;2023-12-07T05:44:17;58.00;48.50;32.25
72307;PMS5003;60257;42.638;23.376;2023-12-07T05:46:46;64.50;52.75;32.25
72307;PMS5003;60257;42.638;23.376;2023-12-07T05:49:12;66.75;52.25;33.00
72307;PMS5003;60257;42.638;23.376;2023-12-07T05:51:38;62.75;51.75;31.25
72307;PMS5003;60257;42.638;23.376;2023-12-07T05:54:03;59.75;48.00;29.25
72307;PMS5003;60257;42.638;23.376;2023-12-07T05:56:29;69.00;55.00;34.00
72307;PMS5003;60257;42.638;23.376;2023-12-07T05:58:56;65.50;53.00;33.00
72307;PMS5003;60257;42.638;23.376;2023-12-07T06:01:22;64.75;51.50;33.00
72307;PMS5003;60257;42.638;23.376;2023-12-07T06:03:47;71.50;56.25;34.00
72307;PMS5003;60257;42.638;23.376;2023-12-07T06:06:13;64.75;52.50;30.75
72307;PMS5003;60257;42.638;23.376;2023-12-07T06:08:38;69.50;53.50;31.75
72307;PMS5003;60257;42.638;23.376;2023-12-07T06:11:04;63.50;52.25;29.00
72307;PMS5003;60257;42.638;23.376;2023-12-07T06:13:29;66.00;54.50;33.50
72307;PMS5003;60257;42.638;23.376;2023-12-07T06:15:55;63.50;53.00;31.00
72307;PMS5003;60257;42.638;23.376;2023-12-07T06:18:20;64.75;53.25;33.00
72307;PMS5003;60257;42.638;23.376;2023-12-07T06:20:45;63.50;54.00;34.00
72307;PMS5003;60257;42.638;23.376;2023-12-07T06:23:11;66.25;54.00;33.75
72307;PMS5003;60257;42.638;23.376;2023-12-07T06:25:40;67.50;55.25;34.25
72307;PMS5003;60257;42.638;23.376;2023-12-07T06:28:06;61.00;49.75;29.75
72307;PMS5003;60257;42.638;23.376;2023-12-07T06:30:31;65.25;54.75;33.00
72307;PMS5003;60257;42.638;23.376;2023-12-07T06:32:57;61.50;49.50;29.25
72307;PMS5003;60257;42.638;23.376;2023-12-07T06:35:22;65.75;54.50;33.50
72307;PMS5003;60257;42.638;23.376;2023-12-07T06:37:48;63.00;51.75;33.25
72307;PMS5003;60257;42.638;23.376;2023-12-07T06:40:14;57.75;49.00;30.75
72307;PMS5003;60257;42.638;23.376;2023-12-07T06:42:39;68.00;54.25;32.75
72307;PMS5003;60257;42.638;23.376;2023-12-07T06:45:04;72.75;56.50;34.50
72307;PMS5003;60257;42.638;23.376;2023-12-07T06:47:35;67.50;56.50;34.25
72307;PMS5003;60257;42.638;23.376;2023-12-07T06:50:00;72.00;55.50;35.25
72307;PMS5003;60257;42.638;23.376;2023-12-07T06:52:27;62.00;52.75;33.75
72307;PMS5003;60257;42.638;23.376;2023-12-07T06:54:53;74.25;58.00;36.25
72307;PMS5003;60257;42.638;23.376;2023-12-07T06:57:18;70.25;56.75;35.00
72307;PMS5003;60257;42.638;23.376;2023-12-07T06:59:44;62.75;52.25;32.00
72307;PMS5003;60257;42.638;23.376;2023-12-07T07:02:09;59.25;51.00;32.25
72307;PMS5003;60257;42.638;23.376;2023-12-07T07:04:34;70.00;55.25;33.25
72307;PMS5003;60257;42.638;23.376;2023-12-07T07:07:00;68.25;53.25;32.25
72307;PMS5003;60257;42.638;23.376;2023-12-07T07:09:25;64.50;53.25;32.00
72307;PMS5003;60257;42.638;23.376;2023-12-07T07:11:51;59.75;49.25;26.00
72307;PMS5003;60257;42.638;23.376;2023-12-07T07:14:16;46.00;40.25;18.50
72307;PMS5003;60257;42.638;23.376;2023-12-07T07:16:42;39.25;33.75;27.00
72307;PMS5003;60257;42.638;23.376;2023-12-07T07:19:07;49.75;42.75;26.00
72307;PMS5003;60257;42.638;23.376;2023-12-07T07:21:33;42.00;38.50;23.75
72307;PMS5003;60257;42.638;23.376;2023-12-07T07:23:58;55.25;47.25;27.75
72307;PMS5003;60257;42.638;23.376;2023-12-07T07:26:24;50.50;42.00;26.00
72307;PMS5003;60257;42.638;23.376;2023-12-07T07:28:50;39.50;37.25;21.75
72307;PMS5003;60257;42.638;23.376;2023-12-07T07:31:16;50.25;39.50;23.75
72307;PMS5003;60257;42.638;23.376;2023-12-07T07:33:43;51.75;44.00;25.75
72307;PMS5003;60257;42.638;23.376;2023-12-07T07:36:08;54.75;43.00;23.50
72307;PMS5003;60257;42.638;23.376;2023-12-07T07:38:34;46.25;40.75;24.25
72307;PMS5003;60257;42.638;23.376;2023-12-07T07:41:00;39.00;33.75;21.75
72307;PMS5003;60257;42.638;23.376;2023-12-07T07:43:25;52.25;42.75;25.75
72307;PMS5003;60257;42.638;23.376;2023-12-07T07:45:51;42.00;36.00;19.33
72307;PMS5003;60257;42.638;23.376;2023-12-07T07:48:16;44.25;37.50;23.25
72307;PMS5003;60257;42.638;23.376;2023-12-07T07:50:42;41.25;37.75;21.75
72307;PMS5003;60257;42.638;23.376;2023-12-07T07:53:07;43.75;39.50;24.25
72307;PMS5003;60257;42.638;23.376;2023-12-07T07:55:32;53.50;44.50;25.75
72307;PMS5003;60257;42.638;23.376;2023-12-07T07:57:58;61.50;50.25;32.00
72307;PMS5003;60257;42.638;23.376;2023-12-07T08:00:23;46.75;40.75;22.50
72307;PMS5003;60257;42.638;23.376;2023-12-07T08:02:51;47.00;41.50;24.00
72307;PMS5003;60257;42.638;23.376;2023-12-07T08:05:16;56.75;46.00;28.00
72307;PMS5003;60257;42.638;23.376;2023-12-07T08:07:42;59.75;47.00;28.75
72307;PMS5003;60257;42.638;23.376;2023-12-07T08:10:07;56.75;47.25;26.00
72307;PMS5003;60257;42.638;23.376;2023-12-07T08:12:34;58.50;48.50;28.25
72307;PMS5003;60257;42.638;23.376;2023-12-07T08:15:00;55.75;44.50;28.00
72307;PMS5003;60257;42.638;23.376;2023-12-07T08:17:26;55.75;42.50;26.00
72307;PMS5003;60257;42.638;23.376;2023-12-07T08:19:52;42.50;35.50;24.25
72307;PMS5003;60257;42.638;23.376;2023-12-07T08:22:17;43.50;38.75;25.25
72307;PMS5003;60257;42.638;23.376;2023-12-07T08:24:43;33.00;33.00;19.33
72307;PMS5003;60257;42.638;23.376;2023-12-07T08:27:08;30.33;29.67;16.67
72307;PMS5003;60257;42.638;23.376;2023-12-07T08:29:34;24.00;24.00;16.33
72307;PMS5003;60257;42.638;23.376;2023-12-07T08:32:00;27.00;25.00;11.33
72307;PMS5003;60257;42.638;23.376;2023-12-07T08:34:25;37.00;36.00;18.67
72307;PMS5003;60257;42.638;23.376;2023-12-07T08:36:51;36.00;35.00;19.67
72307;PMS5003;60257;42.638;23.376;2023-12-07T08:39:16;32.00;31.33;19.00
72307;PMS5003;60257;42.638;23.376;2023-12-07T08:41:42;37.33;33.00;18.67
72307;PMS5003;60257;42.638;23.376;2023-12-07T08:44:07;40.67;37.00;23.67
72307;PMS5003;60257;42.638;23.376;2023-12-07T08:46:33;26.33;26.33;19.33
72307;PMS5003;60257;42.638;23.376;2023-12-07T08:48:59;44.33;37.67;21.33
72307;PMS5003;60257;42.638;23.376;2023-12-07T08:51:24;35.25;33.50;21.75
72307;PMS5003;60257;42.638;23.376;2023-12-07T08:53:50;33.00;31.67;20.00
72307;PMS5003;60257;42.638;23.376;2023-12-07T08:56:16;19.25;17.75;12.00
72307;PMS5003;60257;42.638;23.376;2023-12-07T08:58:42;33.50;26.75;16.00
72307;PMS5003;60257;42.638;23.376;2023-12-07T09:01:09;25.00;24.67;16.00
72307;PMS5003;60257;42.638;23.376;2023-12-07T09:03:34;23.67;23.33;14.00
72307;PMS5003;60257;42.638;23.376;2023-12-07T09:06:00;23.00;22.00;14.00
72307;PMS5003;60257;42.638;23.376;2023-12-07T09:08:26;28.33;27.67;17.67
72307;PMS5003;60257;42.638;23.376;2023-12-07T09:10:51;27.33;24.33;16.00
72307;PMS5003;60257;42.638;23.376;2023-12-07T09:13:17;19.33;18.33;13.00
72307;PMS5003;60257;42.638;23.376;2023-12-07T09:15:43;14.00;13.33;9.67
72307;PMS5003;60257;42.638;23.376;2023-12-07T09:18:09;21.67;21.33;12.00
72307;PMS5003;60257;42.638;23.376;2023-12-07T09:20:36;20.00;20.00;11.33
72307;PMS5003;60257;42.638;23.376;2023-12-07T09:23:02;21.33;20.00;13.33
72307;PMS5003;60257;42.638;23.376;2023-12-07T09:25:28;20.33;20.33;12.00
72307;PMS5003;60257;42.638;23.376;2023-12-07T09:27:55;19.33;19.33;10.67
72307;PMS5003;60257;42.638;23.376;2023-12-07T09:30:21;7.00;7.00;7.00
72307;PMS5003;60257;42.638;23.376;2023-12-07T09:32:46;18.00;18.00;11.00
72307;PMS5003;60257;42.638;23.376;2023-12-07T09:35:12;10.00;9.67;7.33
72307;PMS5003;60257;42.638;23.376;2023-12-07T09:37:44;18.00;18.00;11.00
72307;PMS5003;60257;42.638;23.376;2023-12-07T09:40:19;16.33;14.33;9.33
72307;PMS5003;60257;42.638;23.376;2023-12-07T09:42:46;15.67;15.67;11.00
72307;PMS5003;60257;42.638;23.376;2023-12-07T09:45:12;11.67;11.67;8.00
72307;PMS5003;60257;42.638;23.376;2023-12-07T09:47:43;8.00;7.00;1.33
72307;PMS5003;60257;42.638;23.376;2023-12-07T09:50:13;14.00;12.67;9.00
72307;PMS5003;60257;42.638;23.376;2023-12-07T09:52:41;11.00;9.00;6.33
72307;PMS5003;60257;42.638;23.376;2023-12-07T09:55:07;15.33;13.67;7.67
72307;PMS5003;60257;42.638;23.376;2023-12-07T09:57:33;13.67;13.67;9.00
72307;PMS5003;60257;42.638;23.376;2023-12-07T09:59:59;15.67;14.00;8.67
72307;PMS5003;60257;42.638;23.376;2023-12-07T10:02:25;13.33;9.67;5.33
72307;PMS5003;60257;42.638;23.376;2023-12-07T10:05:04;13.67;8.67;3.33
72307;PMS5003;60257;42.638;23.376;2023-12-07T10:07:33;13.67;11.00;6.00
72307;PMS5003;60257;42.638;23.376;2023-12-07T10:10:01;11.67;11.67;8.00
72307;PMS5003;60257;42.638;23.376;2023-12-07T10:12:28;9.33;9.33;7.00
72307;PMS5003;60257;42.638;23.376;2023-12-07T10:14:55;12.67;11.00;8.00
72307;PMS5003;60257;42.638;23.376;2023-12-07T10:17:23;11.67;11.67;7.67
72307;PMS5003;60257;42.638;23.376;2023-12-07T10:20:07;3.00;3.00;1.00
72307;PMS5003;60257;42.638;23.376;2023-12-07T10:22:38;17.33;15.67;10.00
72307;PMS5003;60257;42.638;23.376;2023-12-07T10:25:04;15.67;14.67;9.67
72307;PMS5003;60257;42.638;23.376;2023-12-07T10:27:30;14.33;12.67;7.00
72307;PMS5003;60257;42.638;23.376;2023-12-07T10:29:58;10.33;9.33;7.00
72307;PMS5003;60257;42.638;23.376;2023-12-07T10:32:23;9.33;9.33;6.67
72307;PMS5003;60257;42.638;23.376;2023-12-07T10:34:49;11.67;11.33;8.00
72307;PMS5003;60257;42.638;23.376;2023-12-07T10:37:14;11.00;11.00;6.33
72307;PMS5003;60257;42.638;23.376;2023-12-07T10:39:40;11.00;10.67;6.00
72307;PMS5003;60257;42.638;23.376;2023-12-07T10:42:06;8.67;7.67;5.00
72307;PMS5003;60257;42.638;23.376;2023-12-07T10:44:38;5.00;5.00;2.33
72307;PMS5003;60257;42.638;23.376;2023-12-07T10:47:07;7.00;7.00;5.00
72307;PMS5003;60257;42.638;23.376;2023-12-07T10:49:37;10.33;9.00;6.00
72307;PMS5003;60257;42.638;23.376;2023-12-07T10:52:08;10.33;9.33;5.33
72307;PMS5003;60257;42.638;23.376;2023-12-07T10:54:50;10.33;9.00;6.67
72307;PMS5003;60257;42.638;23.376;2023-12-07T10:57:21;14.67;11.00;7.00
72307;PMS5003;60257;42.638;23.376;2023-12-07T10:59:46;12.67;10.00;7.00
72307;PMS5003;60257;42.638;23.376;2023-12-07T11:02:15;10.00;9.00;5.00
72307;PMS5003;60257;42.638;23.376;2023-12-07T11:04:46;9.00;8.33;5.33
72307;PMS5003;60257;42.638;23.376;2023-12-07T11:07:14;12.00;10.00;6.00
72307;PMS5003;60257;42.638;23.376;2023-12-07T11:09:45;10.00;9.00;6.00
72307;PMS5003;60257;42.638;23.376;2023-12-07T11:12:25;9.67;9.67;7.00
72307;PMS5003;60257;42.638;23.376;2023-12-07T11:14:58;11.00;10.00;7.33
72307;PMS5003;60257;42.638;23.376;2023-12-07T11:17:24;10.67;10.67;6.67
72307;PMS5003;60257;42.638;23.376;2023-12-07T11:19:49;10.33;9.33;5.33
72307;PMS5003;60257;42.638;23.376;2023-12-07T11:22:15;6.67;6.67;5.00
72307;PMS5003;60257;42.638;23.376;2023-12-07T11:24:56;13.67;13.33;7.00
72307;PMS5003;60257;42.638;23.376;2023-12-07T11:27:26;11.33;11.33;7.33
72307;PMS5003;60257;42.638;23.376;2023-12-07T11:29:57;10.33;7.67;5.67
72307;PMS5003;60257;42.638;23.376;2023-12-07T11:32:25;11.67;10.00;6.00
72307;PMS5003;60257;42.638;23.376;2023-12-07T11:34:52;9.33;9.33;7.33
72307;PMS5003;60257;42.638;23.376;2023-12-07T11:37:17;9.33;9.00;6.00
72307;PMS5003;60257;42.638;23.376;2023-12-07T11:39:42;9.67;9.00;6.00
72307;PMS5003;60257;42.638;23.376;2023-12-07T11:42:11;10.00;10.00;5.67
72307;PMS5003;60257;42.638;23.376;2023-12-07T11:44:38;13.00;10.00;5.67
72307;PMS5003;60257;42.638;23.376;2023-12-07T11:47:09;9.33;9.33;6.00
72307;PMS5003;60257;42.638;23.376;2023-12-07T11:49:35;9.00;9.00;5.00
72307;PMS5003;60257;42.638;23.376;2023-12-07T11:52:01;23.00;20.67;10.33
72307;PMS5003;60257;42.638;23.376;2023-12-07T11:54:38;10.00;7.00;6.00
72307;PMS5003;60257;42.638;23.376;2023-12-07T11:57:03;11.33;10.00;7.00
72307;PMS5003;60257;42.638;23.376;2023-12-07T11:59:29;9.00;9.00;6.33
72307;PMS5003;60257;42.638;23.376;2023-12-07T12:01:58;10.00;10.00;6.33
72307;PMS5003;60257;42.638;23.376;2023-12-07T12:04:24;10.33;10.33;7.67
72307;PMS5003;60257;42.638;23.376;2023-12-07T12:06:49;14.00;14.00;9.00
72307;PMS5003;60257;42.638;23.376;2023-12-07T12:09:15;13.33;11.33;7.33
72307;PMS5003;60257;42.638;23.376;2023-12-07T12:11:44;10.25;10.25;7.00
72307;PMS5003;60257;42.638;23.376;2023-12-07T12:14:11;6.33;5.00;2.33
72307;PMS5003;60257;42.638;23.376;2023-12-07T12:16:38;15.67;15.67;11.67
72307;PMS5003;60257;42.638;23.376;2023-12-07T12:19:04;13.00;11.00;7.00
72307;PMS5003;60257;42.638;23.376;2023-12-07T12:21:33;11.33;10.00;6.33
72307;PMS5003;60257;42.638;23.376;2023-12-07T12:23:59;10.33;10.33;7.00
72307;PMS5003;60257;42.638;23.376;2023-12-07T12:26:24;9.67;9.00;7.33
72307;PMS5003;60257;42.638;23.376;2023-12-07T12:28:49;13.67;13.00;8.33
72307;PMS5003;60257;42.638;23.376;2023-12-07T12:31:17;11.00;11.00;7.00
72307;PMS5003;60257;42.638;23.376;2023-12-07T12:33:42;15.00;13.00;9.00
72307;PMS5003;60257;42.638;23.376;2023-12-07T12:36:08;13.67;11.67;9.00
72307;PMS5003;60257;42.638;23.376;2023-12-07T12:38:35;13.00;11.33;5.67
72307;PMS5003;60257;42.638;23.376;2023-12-07T12:41:01;15.33;13.00;6.67
72307;PMS5003;60257;42.638;23.376;2023-12-07T12:43:29;9.33;9.33;6.00
72307;PMS5003;60257;42.638;23.376;2023-12-07T12:45:56;13.00;10.33;7.00
72307;PMS5003;60257;42.638;23.376;2023-12-07T12:48:23;14.67;13.67;9.00
72307;PMS5003;60257;42.638;23.376;2023-12-07T12:50:48;11.00;10.67;7.00
72307;PMS5003;60257;42.638;23.376;2023-12-07T12:53:14;14.00;14.00;7.00
72307;PMS5003;60257;42.638;23.376;2023-12-07T12:55:40;12.00;10.67;7.33
72307;PMS5003;60257;42.638;23.376;2023-12-07T12:58:07;13.33;13.33;9.00
72307;PMS5003;60257;42.638;23.376;2023-12-07T13:00:34;15.67;14.00;9.33
72307;PMS5003;60257;42.638;23.376;2023-12-07T13:03:03;14.00;14.00;9.00
72307;PMS5003;60257;42.638;23.376;2023-12-07T13:05:29;13.00;13.00;8.00
72307;PMS5003;60257;42.638;23.376;2023-12-07T13:07:57;12.00;12.00;9.00
72307;PMS5003;60257;42.638;23.376;2023-12-07T13:10:23;14.50;14.50;9.75
72307;PMS5003;60257;42.638;23.376;2023-12-07T13:12:49;17.75;15.00;10.00
72307;PMS5003;60257;42.638;23.376;2023-12-07T13:15:14;14.00;13.50;7.75
72307;PMS5003;60257;42.638;23.376;2023-12-07T13:17:40;18.00;17.00;9.67
72307;PMS5003;60257;42.638;23.376;2023-12-07T13:20:06;19.00;19.00;12.25
72307;PMS5003;60257;42.638;23.376;2023-12-07T13:22:38;14.50;13.25;8.00
72307;PMS5003;60257;42.638;23.376;2023-12-07T13:25:05;24.50;21.75;13.00
72307;PMS5003;60257;42.638;23.376;2023-12-07T13:27:32;20.50;20.50;13.75
72307;PMS5003;60257;42.638;23.376;2023-12-07T13:29:58;18.75;18.25;13.00
72307;PMS5003;60257;42.638;23.376;2023-12-07T13:32:24;23.25;20.25;12.50
72307;PMS5003;60257;42.638;23.376;2023-12-07T13:34:49;28.00;25.50;15.00
72307;PMS5003;60257;42.638;23.376;2023-12-07T13:37:15;18.00;17.50;12.50